»·PEaware :: AAL1048 KDFW-KELP

AAL1048 :: KDFW-KELP

FLIGHT INFORMATION

Flight Status: Arrived
Operator:
American Airlines
More flights by this operator :: More flights under this callsign
Pilot: Adam A. (5112)
Aircraft: MCDONNELL-DOUGLAS MD-88
(MD88)
More flights by this aircraft type
Origin: KDFW Dallas-Ft Worth Intl
United States
Destination: KELP El Paso Intl
United States
More flights between these airports :: More routes between these airports
Route: WESTEX1 CIKAN INK LIFFT SAMMR3 AGUAS
File this flight plan on PilotEdge
Remarks:
Altitude:
(Current/Filed)
34,000ft
Speed:
(Current/Filed)
440kts
Departed: 09-Dec-15 08:05 PM
Arrived: 09-Dec-15 09:22 PM
Distance/Time
Traveled:
471nm/1:16
Distance/Time
To Go:
Arrived

Flight Plot

Page will automatically refresh every two minutes.


Map Options




Map Legend


Flown Route
Filed Route
Departure Airport
Arrival Airport
Navaid (VOR, NDB)
Fix

Horizontal Profiles

Position Reports

Time Latitude Longitude Heading Altitude Ground
Speed
09-Dec-15 19:53 32.906329 -97.034406 118 612ft 0kts
09-Dec-15 19:54 32.908837 -97.033002 359 612ft 25kts
09-Dec-15 19:55 32.910106 -97.037793 272 612ft 25kts
09-Dec-15 19:56 32.910138 -97.046205 269 612ft 23kts
09-Dec-15 19:57 32.914937 -97.047539 0 612ft 22kts
09-Dec-15 19:58 32.915661 -97.049261 269 612ft 0kts
09-Dec-15 19:59 32.915661 -97.049261 269 612ft 0kts
09-Dec-15 20:00 32.915661 -97.049261 269 612ft 0kts
09-Dec-15 20:01 32.913156 -97.050745 178 612ft 39kts
09-Dec-15 20:02 32.888079 -97.049052 174 1249ft 174kts
09-Dec-15 20:03 32.837442 -97.048080 187 3023ft 273kts
09-Dec-15 20:04 32.769151 -97.052996 182 7685ft 263kts
09-Dec-15 20:05 32.707241 -97.087728 232 10332ft 298kts
09-Dec-15 20:06 32.689402 -97.184673 268 12542ft 324kts
09-Dec-15 20:07 32.687942 -97.292150 268 14976ft 335kts
09-Dec-15 20:08 32.685527 -97.407254 268 16393ft 373kts
09-Dec-15 20:09 32.682771 -97.531321 268 18517ft 383kts
09-Dec-15 20:10 32.679773 -97.659713 268 19940ft 409kts
09-Dec-15 20:11 32.676153 -97.757393 264 20933ft 423kts
09-Dec-15 20:12 32.667636 -97.867337 264 22252ft 431kts
09-Dec-15 20:13 32.656351 -98.010564 264 23768ft 441kts
09-Dec-15 20:14 32.644928 -98.155717 264 25097ft 449kts
09-Dec-15 20:15 32.633368 -98.299379 264 26605ft 447kts
09-Dec-15 20:16 32.622621 -98.430260 268 28623ft 422kts
09-Dec-15 20:17 32.611123 -98.568857 268 29733ft 423kts
09-Dec-15 20:18 32.599496 -98.707180 269 30747ft 422kts
09-Dec-15 20:19 32.587773 -98.844731 269 31695ft 420kts
09-Dec-15 20:20 32.575921 -98.981994 269 32521ft 419kts
09-Dec-15 20:21 32.564017 -99.118511 269 33228ft 417kts
09-Dec-15 20:22 32.552185 -99.254569 269 33839ft 417kts
09-Dec-15 20:23 32.541840 -99.390228 271 33978ft 414kts
09-Dec-15 20:24 32.533607 -99.526740 271 33977ft 415kts
09-Dec-15 20:25 32.525275 -99.662697 271 33973ft 414kts
09-Dec-15 20:26 32.516795 -99.798648 271 33962ft 413kts
09-Dec-15 20:27 32.508200 -99.934112 271 33957ft 413kts
09-Dec-15 20:28 32.499427 -100.070028 271 33956ft 413kts
09-Dec-15 20:29 32.490862 -100.204232 270 33976ft 414kts
09-Dec-15 20:30 32.478636 -100.340523 262 34015ft 422kts
09-Dec-15 20:31 32.452308 -100.475232 262 33996ft 421kts
09-Dec-15 20:32 32.425877 -100.609223 262 33985ft 421kts
09-Dec-15 20:33 32.399061 -100.744360 262 33982ft 422kts
09-Dec-15 20:34 32.372136 -100.879238 262 33980ft 422kts
09-Dec-15 20:35 32.345065 -101.014050 262 33977ft 422kts
09-Dec-15 20:36 32.318115 -101.148317 262 33986ft 421kts
09-Dec-15 20:37 32.290883 -101.282741 261 33996ft 420kts
09-Dec-15 20:38 32.268054 -101.394478 262 33997ft 416kts
09-Dec-15 20:39 32.241027 -101.526112 262 33997ft 411kts
09-Dec-15 20:40 32.213774 -101.658131 262 33997ft 414kts
09-Dec-15 20:41 32.186258 -101.790650 262 33996ft 419kts
09-Dec-15 20:42 32.158206 -101.924987 262 33996ft 423kts
09-Dec-15 20:43 32.129836 -102.060063 262 33996ft 426kts
09-Dec-15 20:44 32.101588 -102.194923 261 34000ft 425kts
09-Dec-15 20:45 32.072824 -102.330415 261 33999ft 424kts
09-Dec-15 20:46 32.043989 -102.465415 261 33999ft 424kts
09-Dec-15 20:47 32.015024 -102.600264 261 33999ft 425kts
09-Dec-15 20:48 31.986012 -102.734588 261 33999ft 424kts
09-Dec-15 20:49 31.956809 -102.869055 261 33989ft 423kts
09-Dec-15 20:50 31.927562 -103.002989 261 33980ft 422kts
09-Dec-15 20:51 31.898365 -103.136574 261 33984ft 422kts
09-Dec-15 20:52 31.876470 -103.270196 284 34020ft 403kts
09-Dec-15 20:53 31.891027 -103.401855 282 33983ft 407kts
09-Dec-15 20:54 31.904461 -103.534305 282 33983ft 408kts
09-Dec-15 20:55 31.917160 -103.660937 282 33981ft 407kts
09-Dec-15 20:56 31.929874 -103.789000 282 33981ft 409kts
09-Dec-15 20:57 31.942975 -103.922387 282 33980ft 411kts
09-Dec-15 20:58 31.955973 -104.056212 282 33980ft 411kts
09-Dec-15 20:59 31.967945 -104.178509 281 33983ft 410kts
09-Dec-15 21:00 31.980645 -104.311793 281 33881ft 407kts
09-Dec-15 21:01 31.984807 -104.441900 269 33194ft 404kts
09-Dec-15 21:02 31.971617 -104.572432 268 32494ft 398kts
09-Dec-15 21:03 31.958341 -104.701775 268 31793ft 397kts
09-Dec-15 21:04 31.944903 -104.831386 267 31088ft 401kts
09-Dec-15 21:05 31.931167 -104.962572 267 30022ft 408kts
09-Dec-15 21:06 31.917051 -105.096095 266 28264ft 415kts
09-Dec-15 21:07 31.902968 -105.230252 265 26307ft 419kts
09-Dec-15 21:08 31.888250 -105.366865 265 24223ft 423kts
09-Dec-15 21:09 31.875612 -105.504870 271 21741ft 425kts
09-Dec-15 21:10 31.874735 -105.642626 271 19245ft 412kts
09-Dec-15 21:11 31.873835 -105.773276 271 16703ft 380kts
09-Dec-15 21:12 31.872856 -105.890011 272 14527ft 333kts
09-Dec-15 21:13 31.869648 -105.993525 270 12266ft 307kts
09-Dec-15 21:14 31.866130 -106.091448 269 9738ft 290kts
09-Dec-15 21:15 31.877122 -106.178459 283 7885ft 242kts
09-Dec-15 21:16 31.892436 -106.250350 283 7551ft 226kts
09-Dec-15 21:17 31.867639 -106.308307 228 5844ft 206kts
09-Dec-15 21:18 31.832433 -106.356744 230 4292ft 171kts
09-Dec-15 21:19 31.811153 -106.386418 231 3964ft 0kts
09-Dec-15 21:20 31.807244 -106.390975 198 3964ft 34kts
09-Dec-15 21:21 31.801938 -106.393597 215 3964ft 12kts
09-Dec-15 21:22 31.799454 -106.393639 153 3964ft 0kts
09-Dec-15 21:23 31.799454 -106.393639 153 3964ft 0kts
09-Dec-15 21:24 31.895742 -106.266951 273 7242ft 224kts

Navigation Log

Ident Type
1. KDFW Airport
2. CIKAN Fix
3. INK Navaid
4. LIFFT Fix
5. AGUAS Fix
6. KELP Airport